Time;durP1;ratioP1;P1;durP2;ratioP2;P2;SDS_P1;SDS_P2;PMS_P1;PMS_P2;Temp;Humidity;BMP_temperature;BMP_pressure;BME280_temperature;BME280_humidity;BME280_pressure;Samples;Min_cycle;Max_cycle;Signal;HPM_P1;HPM_P2
2023/04/06 00:00:51;;;;;;;10.38;5.82;;;4.80;99.90;;;;;;5134923;27;20041;-58
2023/04/06 00:03:18;;;;;;;9.48;6.22;;;4.70;99.90;;;;;;5136051;27;20035;-58
2023/04/06 00:05:43;;;;;;;9.50;5.85;;;4.70;99.90;;;;;;5153454;27;20053;-58
2023/04/06 00:08:09;;;;;;;9.57;6.30;;;4.70;99.90;;;;;;5135808;27;20042;-58
2023/04/06 00:10:35;;;;;;;11.07;7.10;;;4.70;99.90;;;;;;5154461;27;20365;-58
2023/04/06 00:13:01;;;;;;;10.98;6.53;;;4.70;99.90;;;;;;5118278;27;20057;-59
2023/04/06 00:15:27;;;;;;;9.60;6.28;;;4.60;99.90;;;;;;5154274;27;20433;-59
2023/04/06 00:17:52;;;;;;;12.70;5.88;;;4.70;99.90;;;;;;5153961;27;20059;-58
2023/04/06 00:20:18;;;;;;;9.02;6.47;;;4.60;99.90;;;;;;5154356;27;20068;-58
2023/04/06 00:22:45;;;;;;;6.75;5.82;;;4.60;99.90;;;;;;5154111;27;20031;-58
2023/04/06 00:25:11;;;;;;;11.18;6.80;;;4.60;99.90;;;;;;5154302;27;20074;-58
2023/04/06 00:27:37;;;;;;;10.65;6.22;;;4.60;99.90;;;;;;5118744;27;20086;-58
2023/04/06 00:30:05;;;;;;;10.10;6.65;;;4.60;99.90;;;;;;5138200;27;20045;-58
2023/04/06 00:32:31;;;;;;;8.90;6.28;;;4.50;99.90;;;;;;5157832;27;20383;-57
2023/04/06 00:34:57;;;;;;;9.38;6.50;;;4.50;99.90;;;;;;5157941;27;20042;-58
2023/04/06 00:37:23;;;;;;;9.77;6.18;;;4.50;99.90;;;;;;5158119;27;20110;-58
2023/04/06 00:39:51;;;;;;;9.98;6.20;;;4.50;99.90;;;;;;5158067;27;20118;-58
2023/04/06 00:42:24;;;;;;;11.65;6.20;;;4.50;99.90;;;;;;5157700;27;20114;-58
2023/04/06 00:44:52;;;;;;;10.73;6.30;;;4.40;99.90;;;;;;5157920;27;20365;-58
2023/04/06 00:47:17;;;;;;;11.73;6.47;;;4.40;99.90;;;;;;5157740;27;20417;-58
2023/04/06 00:49:43;;;;;;;11.50;6.93;;;4.40;99.90;;;;;;5157673;27;20126;-58
2023/04/06 00:52:09;;;;;;;7.88;6.10;;;4.40;99.90;;;;;;5157526;27;20099;-59
2023/04/06 00:54:34;;;;;;;13.80;6.57;;;4.40;99.90;;;;;;5157318;27;20038;-58
2023/04/06 00:57:00;;;;;;;9.48;6.10;;;4.40;99.90;;;;;;5157516;27;20038;-58
2023/04/06 00:59:28;;;;;;;9.00;6.35;;;4.40;99.90;;;;;;5157272;27;20440;-58
2023/04/06 01:01:53;;;;;;;10.77;6.70;;;4.40;99.90;;;;;;5157234;27;20035;-58
2023/04/06 01:04:19;;;;;;;9.38;6.30;;;4.40;99.90;;;;;;5157043;27;20050;-58
2023/04/06 01:06:45;;;;;;;9.65;6.57;;;4.30;99.90;;;;;;5157443;27;20050;-58
2023/04/06 01:09:11;;;;;;;10.43;6.28;;;4.20;99.90;;;;;;5157455;27;20051;-58
2023/04/06 01:11:36;;;;;;;9.82;6.05;;;4.20;99.90;;;;;;5156825;27;20126;-58
2023/04/06 01:14:03;;;;;;;11.93;6.53;;;4.20;99.90;;;;;;5138393;27;20111;-58
2023/04/06 01:16:29;;;;;;;9.25;6.43;;;4.20;99.90;;;;;;5156531;27;20373;-59
2023/04/06 01:18:55;;;;;;;10.63;6.75;;;4.20;99.90;;;;;;5156999;27;20042;-58
2023/04/06 01:21:22;;;;;;;9.38;6.50;;;4.10;99.90;;;;;;5137729;27;20046;-58
2023/04/06 01:23:47;;;;;;;10.70;6.72;;;4.20;99.90;;;;;;5155910;27;20491;-58
2023/04/06 01:26:13;;;;;;;9.05;6.00;;;4.10;99.90;;;;;;5157027;27;20043;-58
2023/04/06 01:28:39;;;;;;;9.25;6.18;;;4.10;99.90;;;;;;5156561;27;20094;-59
2023/04/06 01:31:07;;;;;;;9.45;6.47;;;4.10;99.90;;;;;;5156771;27;20042;-58
2023/04/06 01:33:33;;;;;;;10.88;6.22;;;4.10;99.90;;;;;;5156843;27;20105;-58
2023/04/06 01:35:59;;;;;;;10.10;6.25;;;4.10;99.90;;;;;;5156739;27;20552;-58
2023/04/06 01:38:26;;;;;;;8.82;6.53;;;4.10;99.90;;;;;;5156451;27;20484;-58
2023/04/06 01:40:52;;;;;;;8.20;6.03;;;4.00;99.90;;;;;;5156091;27;20030;-57
2023/04/06 01:43:18;;;;;;;8.55;6.07;;;4.00;99.90;;;;;;5137978;27;20026;-57
2023/04/06 01:45:44;;;;;;;9.85;5.97;;;4.00;99.90;;;;;;5156475;27;20042;-58
2023/04/06 01:48:09;;;;;;;10.15;6.57;;;4.00;99.90;;;;;;5156360;27;20065;-57
2023/04/06 01:50:36;;;;;;;10.00;6.90;;;4.00;99.90;;;;;;5137689;27;20507;-58
2023/04/06 01:53:01;;;;;;;12.10;6.35;;;4.00;99.90;;;;;;5137579;27;20047;-58
2023/04/06 01:55:27;;;;;;;10.45;7.10;;;3.90;99.90;;;;;;5144904;27;20039;-58
2023/04/06 01:57:53;;;;;;;9.25;6.30;;;3.80;99.90;;;;;;5135067;27;20072;-58
2023/04/06 02:00:19;;;;;;;9.57;6.95;;;3.90;99.90;;;;;;5135757;27;20043;-58
2023/04/06 02:02:45;;;;;;;8.52;6.75;;;3.80;99.90;;;;;;5116892;27;20848;-58
2023/04/06 02:05:10;;;;;;;10.25;6.80;;;3.80;99.90;;;;;;5099481;27;20134;-57
2023/04/06 02:07:36;;;;;;;10.18;7.53;;;3.80;99.90;;;;;;5135101;27;20405;-57
2023/04/06 02:10:02;;;;;;;10.63;6.57;;;3.80;99.90;;;;;;5116889;27;20039;-57
2023/04/06 02:12:28;;;;;;;9.80;7.00;;;3.80;99.90;;;;;;5135142;27;20039;-57
2023/04/06 02:14:54;;;;;;;11.07;6.80;;;3.80;99.90;;;;;;5116942;27;20041;-57
2023/04/06 02:17:20;;;;;;;11.70;6.43;;;3.70;99.90;;;;;;5116332;27;20053;-58
2023/04/06 02:19:45;;;;;;;9.95;6.22;;;3.70;99.90;;;;;;5115805;27;20050;-58
2023/04/06 02:22:11;;;;;;;10.43;6.78;;;3.70;99.90;;;;;;5134939;27;20035;-58
2023/04/06 02:24:37;;;;;;;8.07;6.75;;;3.80;99.90;;;;;;5135211;27;20118;-57
2023/04/06 02:27:03;;;;;;;10.63;7.35;;;3.60;99.90;;;;;;5134955;27;20396;-57
2023/04/06 02:29:28;;;;;;;10.57;6.85;;;3.60;99.90;;;;;;5099675;27;20149;-57
2023/04/06 02:31:54;;;;;;;11.20;7.18;;;3.60;99.90;;;;;;5134938;27;20457;-57
2023/04/06 02:34:20;;;;;;;14.18;7.43;;;3.60;99.90;;;;;;5134586;27;20062;-58
2023/04/06 02:36:46;;;;;;;10.93;7.60;;;3.60;99.90;;;;;;5154809;27;20035;-57
2023/04/06 02:39:12;;;;;;;12.77;7.93;;;3.50;99.90;;;;;;5154580;27;20103;-56
2023/04/06 02:41:39;;;;;;;11.52;7.38;;;3.50;99.90;;;;;;5118686;27;20495;-57
2023/04/06 02:44:08;;;;;;;12.27;7.25;;;3.50;99.90;;;;;;5154974;27;20050;-56
2023/04/06 02:46:34;;;;;;;10.98;8.35;;;3.60;99.90;;;;;;5154785;27;20058;-57
2023/04/06 02:49:00;;;;;;;11.75;7.93;;;3.50;99.90;;;;;;5135687;27;20495;-57
2023/04/06 02:51:27;;;;;;;11.45;7.78;;;3.50;99.90;;;;;;5154371;27;20046;-57
2023/04/06 02:53:53;;;;;;;10.13;7.57;;;3.40;99.90;;;;;;5153757;27;20038;-56
2023/04/06 02:56:20;;;;;;;10.43;8.38;;;3.40;99.90;;;;;;5154443;27;20177;-57
2023/04/06 02:58:46;;;;;;;11.90;7.78;;;3.40;99.90;;;;;;5154733;27;20061;-57
2023/04/06 03:01:12;;;;;;;13.75;7.43;;;3.40;99.90;;;;;;5136041;27;20804;-56
2023/04/06 03:03:37;;;;;;;12.95;7.90;;;3.40;99.90;;;;;;5136013;27;20047;-56
2023/04/06 03:06:04;;;;;;;14.15;8.20;;;3.40;99.90;;;;;;5154043;27;20043;-56
2023/04/06 03:08:30;;;;;;;11.82;7.30;;;3.40;99.90;;;;;;5154160;27;20571;-56
2023/04/06 03:10:55;;;;;;;10.63;6.93;;;3.40;99.90;;;;;;5154006;27;20038;-56
2023/04/06 03:13:21;;;;;;;12.00;7.15;;;3.30;99.90;;;;;;5135679;27;20050;-56
2023/04/06 03:15:47;;;;;;;10.00;7.20;;;3.40;99.90;;;;;;5153771;27;20484;-56
2023/04/06 03:18:13;;;;;;;11.13;8.02;;;3.40;99.90;;;;;;5135250;27;20079;-57
2023/04/06 03:20:38;;;;;;;9.10;6.80;;;3.40;99.90;;;;;;5153912;27;20042;-56
2023/04/06 03:23:04;;;;;;;10.02;7.53;;;3.30;99.90;;;;;;5153809;27;20045;-57
2023/04/06 03:25:30;;;;;;;13.55;7.82;;;3.30;99.90;;;;;;5135331;27;20055;-57
2023/04/06 03:27:56;;;;;;;9.80;6.80;;;3.30;99.90;;;;;;5153924;27;20035;-56
2023/04/06 03:30:22;;;;;;;11.60;7.88;;;3.30;99.90;;;;;;5153827;27;20190;-56
2023/04/06 03:32:47;;;;;;;15.80;7.45;;;3.40;99.90;;;;;;5153894;27;20559;-57
2023/04/06 03:35:13;;;;;;;10.75;6.88;;;3.30;99.90;;;;;;5153742;27;20034;-57
2023/04/06 03:37:39;;;;;;;11.95;6.82;;;3.40;99.90;;;;;;5153853;27;20051;-57
2023/04/06 03:40:05;;;;;;;9.63;6.72;;;3.30;99.90;;;;;;5135112;27;20037;-57
2023/04/06 03:42:32;;;;;;;10.82;7.90;;;3.30;99.90;;;;;;5153772;27;20539;-57
2023/04/06 03:44:58;;;;;;;11.88;7.03;;;3.30;99.90;;;;;;5153953;27;20035;-57
2023/04/06 03:47:24;;;;;;;9.40;6.57;;;3.30;99.90;;;;;;5135496;27;20091;-57
2023/04/06 03:49:50;;;;;;;11.60;6.88;;;3.30;99.90;;;;;;5153826;27;20031;-57
2023/04/06 03:52:16;;;;;;;12.45;6.55;;;3.40;99.90;;;;;;5135001;27;20039;-57
2023/04/06 03:54:41;;;;;;;14.02;6.38;;;3.30;99.90;;;;;;5135279;27;20121;-57
2023/04/06 03:57:07;;;;;;;8.48;6.32;;;3.40;99.90;;;;;;5134991;27;20039;-57
2023/04/06 03:59:33;;;;;;;8.02;6.32;;;3.30;99.90;;;;;;5153974;27;20068;-57
2023/04/06 04:01:59;;;;;;;10.20;6.40;;;3.30;99.90;;;;;;5153516;27;20038;-57
2023/04/06 04:04:24;;;;;;;11.00;7.07;;;3.20;99.90;;;;;;5155243;27;20035;-57
2023/04/06 04:06:50;;;;;;;11.80;6.72;;;3.20;99.90;;;;;;5139225;27;20038;-57
2023/04/06 04:09:15;;;;;;;8.57;6.55;;;3.20;99.90;;;;;;5157705;27;20053;-57
2023/04/06 04:11:41;;;;;;;9.18;6.75;;;3.20;99.90;;;;;;5139332;27;20095;-57
2023/04/06 04:14:07;;;;;;;9.40;6.38;;;3.10;99.90;;;;;;5138952;27;20508;-57
2023/04/06 04:16:32;;;;;;;8.82;6.35;;;3.00;99.90;;;;;;5157489;27;20059;-56
2023/04/06 04:18:58;;;;;;;11.07;6.43;;;3.00;99.90;;;;;;5157760;27;20427;-57
2023/04/06 04:21:25;;;;;;;9.73;6.55;;;3.00;99.90;;;;;;5157423;27;20034;-57
2023/04/06 04:23:52;;;;;;;8.35;6.35;;;3.00;99.90;;;;;;5138469;27;20062;-58
2023/04/06 04:26:18;;;;;;;14.98;6.78;;;3.00;99.90;;;;;;5157961;27;20038;-58
2023/04/06 04:28:44;;;;;;;10.10;6.95;;;3.00;99.90;;;;;;5139506;27;20039;-58
2023/04/06 04:31:10;;;;;;;9.93;6.80;;;3.00;99.90;;;;;;5157829;27;20053;-57
2023/04/06 04:33:36;;;;;;;9.00;6.45;;;2.90;99.90;;;;;;5139790;27;20122;-57
2023/04/06 04:36:01;;;;;;;10.30;6.95;;;2.90;99.90;;;;;;5157561;27;20092;-57
2023/04/06 04:38:27;;;;;;;9.88;6.47;;;2.90;99.90;;;;;;5157542;27;20031;-58
2023/04/06 04:40:53;;;;;;;9.18;7.03;;;2.90;99.90;;;;;;5139172;27;20030;-58
2023/04/06 04:43:18;;;;;;;8.95;6.68;;;2.90;99.90;;;;;;5157409;27;20473;-58
2023/04/06 04:45:44;;;;;;;10.77;6.72;;;2.90;99.90;;;;;;5157551;27;20039;-57
2023/04/06 04:48:10;;;;;;;10.18;7.20;;;2.90;99.90;;;;;;5122089;27;20050;-58
2023/04/06 04:50:35;;;;;;;10.13;7.15;;;2.90;99.90;;;;;;5138611;27;20039;-58
2023/04/06 04:53:01;;;;;;;11.52;7.18;;;2.80;99.90;;;;;;5157386;27;20039;-58
2023/04/06 04:55:29;;;;;;;11.38;7.40;;;2.80;99.90;;;;;;5138964;27;20045;-58
2023/04/06 04:57:54;;;;;;;10.40;6.93;;;2.90;99.90;;;;;;5144888;27;20089;-57
2023/04/06 05:00:20;;;;;;;11.60;6.78;;;2.80;99.90;;;;;;5118205;27;20071;-57
2023/04/06 05:02:46;;;;;;;13.82;7.18;;;2.80;99.90;;;;;;5136361;27;20043;-58
2023/04/06 05:05:12;;;;;;;8.27;7.03;;;2.80;99.90;;;;;;5136558;27;20035;-58
2023/04/06 05:07:37;;;;;;;9.70;6.82;;;2.80;99.90;;;;;;5136418;27;20448;-58
2023/04/06 05:10:03;;;;;;;8.25;6.80;;;2.80;99.90;;;;;;5141232;27;20039;-58
2023/04/06 05:12:29;;;;;;;12.25;7.28;;;2.80;99.90;;;;;;5157286;27;20384;-58
2023/04/06 05:14:55;;;;;;;8.60;6.88;;;2.80;99.90;;;;;;5156904;27;20068;-57
2023/04/06 05:17:21;;;;;;;9.73;7.30;;;2.80;99.90;;;;;;5137377;27;20054;-57
2023/04/06 05:19:46;;;;;;;8.13;6.53;;;2.90;99.90;;;;;;5157017;27;20110;-57
2023/04/06 05:22:14;;;;;;;10.20;7.03;;;2.90;99.90;;;;;;5156586;27;20357;-58
2023/04/06 05:24:40;;;;;;;12.45;6.85;;;3.00;99.90;;;;;;5156845;27;20050;-57
2023/04/06 05:27:06;;;;;;;10.20;7.47;;;2.90;99.90;;;;;;5155949;27;20039;-58
2023/04/06 05:29:31;;;;;;;10.05;7.95;;;3.00;99.90;;;;;;5157009;27;20050;-58
2023/04/06 05:31:57;;;;;;;12.18;7.97;;;3.00;99.90;;;;;;5156837;27;20039;-58
2023/04/06 05:34:23;;;;;;;9.93;7.15;;;3.10;99.90;;;;;;5138121;27;20026;-58
2023/04/06 05:36:49;;;;;;;11.27;7.20;;;3.10;99.90;;;;;;5156663;27;20157;-57
2023/04/06 05:39:15;;;;;;;10.40;6.82;;;3.20;99.90;;;;;;5156712;27;20091;-57
2023/04/06 05:41:41;;;;;;;11.05;6.70;;;3.30;99.90;;;;;;5156782;27;20039;-57
2023/04/06 05:44:07;;;;;;;12.93;6.97;;;3.40;99.90;;;;;;5155499;27;20049;-57
2023/04/06 05:46:32;;;;;;;14.55;7.55;;;3.40;99.90;;;;;;5156706;27;20074;-57
2023/04/06 05:48:58;;;;;;;8.57;6.82;;;3.50;99.90;;;;;;5156698;27;20062;-58
2023/04/06 05:51:24;;;;;;;11.43;7.43;;;3.60;99.90;;;;;;5156474;27;20046;-57
2023/04/06 05:53:50;;;;;;;11.43;7.00;;;3.70;99.90;;;;;;5156212;27;20039;-58
2023/04/06 05:56:16;;;;;;;11.98;7.45;;;3.70;99.90;;;;;;5156417;27;20119;-57
2023/04/06 05:58:42;;;;;;;12.68;7.65;;;3.80;99.90;;;;;;5156515;27;20113;-58
2023/04/06 06:01:09;;;;;;;8.82;6.35;;;3.90;99.90;;;;;;5156330;27;20042;-58
2023/04/06 06:03:35;;;;;;;13.18;7.47;;;3.90;99.90;;;;;;5156221;27;20035;-57
2023/04/06 06:06:01;;;;;;;12.18;7.35;;;4.00;99.90;;;;;;5156150;27;20369;-58
2023/04/06 06:08:28;;;;;;;9.48;6.75;;;4.10;99.90;;;;;;5156188;27;20373;-58
2023/04/06 06:10:53;;;;;;;8.88;6.88;;;4.20;99.90;;;;;;5136828;27;20106;-58
2023/04/06 06:13:19;;;;;;;11.07;6.70;;;4.20;99.90;;;;;;5137618;27;20038;-58
2023/04/06 06:15:45;;;;;;;9.55;7.35;;;4.30;99.90;;;;;;5155669;27;20035;-57
2023/04/06 06:18:11;;;;;;;9.48;6.88;;;4.50;99.90;;;;;;5136656;27;20043;-58
2023/04/06 06:20:36;;;;;;;9.55;6.43;;;4.60;99.90;;;;;;5143009;27;20072;-58
2023/04/06 06:23:02;;;;;;;12.40;6.55;;;4.70;99.90;;;;;;5136515;27;20408;-57
2023/04/06 06:25:30;;;;;;;8.35;6.85;;;4.80;99.90;;;;;;5148640;27;20034;-58
2023/04/06 06:27:56;;;;;;;12.68;7.40;;;5.00;99.90;;;;;;5145026;27;20043;-58
2023/04/06 06:30:22;;;;;;;11.68;7.10;;;5.20;99.90;;;;;;5154823;27;20042;-57
2023/04/06 06:32:48;;;;;;;10.95;7.15;;;5.40;99.90;;;;;;5154759;27;20043;-57
2023/04/06 06:35:14;;;;;;;10.30;7.00;;;5.60;99.90;;;;;;5154744;27;20042;-57
2023/04/06 06:37:40;;;;;;;10.40;7.10;;;5.70;99.90;;;;;;5154719;27;20054;-57
2023/04/06 06:40:06;;;;;;;10.98;7.57;;;5.70;99.90;;;;;;5135521;27;20038;-57
2023/04/06 06:42:31;;;;;;;10.75;7.25;;;5.80;99.90;;;;;;5133661;27;20041;-57
2023/04/06 06:44:57;;;;;;;10.23;7.45;;;5.90;99.90;;;;;;5115415;27;20118;-56
2023/04/06 06:47:23;;;;;;;11.00;7.40;;;6.00;99.90;;;;;;5153107;27;20035;-58
2023/04/06 06:49:48;;;;;;;12.07;8.27;;;6.20;99.90;;;;;;5154500;27;20039;-57
2023/04/06 06:52:14;;;;;;;12.70;7.60;;;6.40;99.90;;;;;;5118922;27;20441;-56
2023/04/06 06:54:40;;;;;;;12.23;8.10;;;6.70;99.90;;;;;;5154414;27;20511;-57
2023/04/06 06:57:05;;;;;;;13.80;6.60;;;6.80;99.90;;;;;;5154285;27;20039;-56
2023/04/06 06:59:31;;;;;;;13.02;6.75;;;6.90;99.90;;;;;;5154246;27;20433;-56
2023/04/06 07:01:57;;;;;;;10.75;7.80;;;7.00;99.90;;;;;;5154219;27;20031;-56
2023/04/06 07:04:23;;;;;;;12.02;7.85;;;7.20;99.90;;;;;;5135593;27;20046;-56
2023/04/06 07:06:48;;;;;;;9.00;6.93;;;7.40;99.90;;;;;;5154204;27;20047;-56
2023/04/06 07:09:14;;;;;;;10.70;7.45;;;7.50;99.90;;;;;;5154024;27;20049;-56
2023/04/06 07:11:39;;;;;;;12.13;7.30;;;7.60;99.90;;;;;;5122795;27;20085;-56
2023/04/06 07:14:05;;;;;;;12.38;8.05;;;7.50;99.90;;;;;;5133148;27;20039;-56
2023/04/06 07:16:31;;;;;;;12.05;8.55;;;7.70;99.90;;;;;;5143805;27;20061;-57
2023/04/06 07:18:57;;;;;;;10.52;7.28;;;7.90;99.90;;;;;;5135090;27;20095;-57
2023/04/06 07:21:22;;;;;;;9.13;7.13;;;8.10;99.90;;;;;;5154100;27;20035;-56
2023/04/06 07:23:48;;;;;;;11.48;7.68;;;8.40;99.90;;;;;;5135279;27;20042;-58
2023/04/06 07:26:14;;;;;;;11.75;7.05;;;8.40;99.90;;;;;;5154024;27;20125;-57
2023/04/06 07:28:40;;;;;;;13.15;7.70;;;8.60;99.90;;;;;;5134883;27;20054;-57
2023/04/06 07:31:06;;;;;;;11.00;7.70;;;8.60;99.90;;;;;;5153717;27;20090;-57
2023/04/06 07:33:31;;;;;;;8.82;7.35;;;8.80;99.90;;;;;;5153831;27;20035;-57
2023/04/06 07:35:58;;;;;;;9.80;6.85;;;9.00;99.90;;;;;;5134884;27;20055;-57
2023/04/06 07:38:24;;;;;;;10.15;6.90;;;9.00;99.90;;;;;;5153851;27;20471;-57
2023/04/06 07:40:50;;;;;;;14.15;7.90;;;9.20;99.90;;;;;;5150621;27;20033;-57
2023/04/06 07:43:16;;;;;;;10.98;7.10;;;9.40;99.90;;;;;;5114685;28;20104;-57
2023/04/06 07:45:41;;;;;;;11.85;7.35;;;9.70;99.90;;;;;;5134710;27;20084;-57
2023/04/06 07:48:07;;;;;;;9.52;7.13;;;9.80;99.90;;;;;;5154022;27;20042;-57
2023/04/06 07:50:33;;;;;;;11.30;6.90;;;9.90;99.90;;;;;;5135190;27;20492;-57
2023/04/06 07:53:00;;;;;;;10.88;7.13;;;10.20;99.90;;;;;;5153831;27;20073;-57
2023/04/06 07:55:26;;;;;;;10.63;6.93;;;10.30;99.80;;;;;;5153593;27;20070;-58
2023/04/06 07:57:51;;;;;;;10.80;6.72;;;10.30;99.20;;;;;;5135258;27;20510;-57
2023/04/06 08:00:17;;;;;;;9.65;7.25;;;10.40;99.30;;;;;;5153760;27;20038;-57
2023/04/06 08:02:43;;;;;;;10.95;6.90;;;10.70;99.00;;;;;;5153704;27;20468;-58
2023/04/06 08:05:09;;;;;;;10.70;7.80;;;10.60;98.60;;;;;;5153547;27;20039;-57
2023/04/06 08:07:36;;;;;;;10.32;6.82;;;10.80;98.90;;;;;;5153474;27;20038;-58
2023/04/06 08:10:02;;;;;;;9.90;7.25;;;11.00;98.20;;;;;;5147521;27;20036;-58
2023/04/06 08:12:27;;;;;;;12.93;7.80;;;11.10;98.50;;;;;;5114442;27;20034;-58
2023/04/06 08:14:53;;;;;;;10.82;7.10;;;11.00;98.20;;;;;;5153034;27;20057;-57
2023/04/06 08:17:19;;;;;;;12.82;7.80;;;11.40;99.10;;;;;;5153144;27;20082;-57
2023/04/06 08:19:45;;;;;;;12.95;7.43;;;11.40;98.30;;;;;;5153399;27;20495;-58
2023/04/06 08:22:11;;;;;;;9.90;7.82;;;11.80;98.20;;;;;;5117681;27;20114;-57
2023/04/06 08:24:37;;;;;;;10.00;7.43;;;12.20;98.20;;;;;;5153392;27;20043;-58
2023/04/06 08:27:02;;;;;;;14.95;7.95;;;12.40;96.80;;;;;;5134827;27;20150;-57
2023/04/06 08:29:28;;;;;;;9.88;7.65;;;12.60;97.60;;;;;;5153359;27;20043;-58
2023/04/06 08:31:54;;;;;;;10.70;7.43;;;12.30;97.30;;;;;;5134967;27;20581;-58
2023/04/06 08:34:21;;;;;;;14.63;7.45;;;12.60;97.60;;;;;;5153275;27;20039;-58
2023/04/06 08:36:47;;;;;;;8.88;7.28;;;12.60;96.90;;;;;;5134647;27;20043;-57
2023/04/06 08:39:13;;;;;;;12.20;8.02;;;12.80;97.20;;;;;;5153248;27;20387;-57
2023/04/06 08:41:41;;;;;;;10.95;8.23;;;12.60;96.60;;;;;;5153133;27;20031;-57
2023/04/06 08:44:07;;;;;;;10.35;7.32;;;12.70;96.70;;;;;;5153014;27;20031;-57
2023/04/06 08:46:33;;;;;;;9.13;7.90;;;12.80;96.80;;;;;;5153251;27;20045;-58
2023/04/06 08:49:03;;;;;;;9.77;7.57;;;13.20;97.10;;;;;;5153250;27;20073;-58
2023/04/06 08:51:30;;;;;;;12.50;8.05;;;13.20;96.20;;;;;;5154671;27;20039;-58
2023/04/06 08:53:59;;;;;;;10.90;7.88;;;13.40;96.10;;;;;;5156815;27;20044;-59
2023/04/06 08:56:26;;;;;;;10.38;7.10;;;13.50;95.20;;;;;;5156606;27;20035;-58
2023/04/06 08:58:53;;;;;;;13.00;8.25;;;13.50;95.00;;;;;;5156864;27;20034;-58
2023/04/06 09:01:29;;;;;;;13.82;8.50;;;13.60;95.30;;;;;;5156749;27;20034;-58
2023/04/06 09:04:00;;;;;;;9.15;6.90;;;13.60;95.10;;;;;;5156570;27;20031;-58
2023/04/06 09:06:26;;;;;;;7.95;6.95;;;13.80;95.70;;;;;;5156589;27;20045;-58
2023/04/06 09:08:53;;;;;;;11.25;7.50;;;13.90;95.10;;;;;;5156694;27;20066;-58
2023/04/06 09:11:18;;;;;;;10.10;7.68;;;13.90;94.60;;;;;;5156453;27;20102;-58
2023/04/06 09:13:49;;;;;;;9.52;7.18;;;13.80;95.20;;;;;;5156437;27;20039;-58
2023/04/06 09:16:16;;;;;;;11.05;7.63;;;14.20;94.70;;;;;;5156215;27;20084;-58
2023/04/06 09:18:41;;;;;;;9.13;7.72;;;14.10;94.60;;;;;;5156166;27;20098;-58
2023/04/06 09:21:08;;;;;;;13.07;8.55;;;13.80;94.70;;;;;;5156205;27;20030;-58
2023/04/06 09:23:34;;;;;;;8.82;7.55;;;13.80;94.90;;;;;;5137802;27;20415;-58
2023/04/06 09:26:11;;;;;;;12.48;8.00;;;13.60;94.90;;;;;;5137613;27;20484;-58
2023/04/06 09:28:45;;;;;;;11.65;8.18;;;13.60;94.70;;;;;;5156235;27;20388;-58
2023/04/06 09:31:16;;;;;;;9.65;8.20;;;13.50;95.10;;;;;;5137668;27;20046;-58
2023/04/06 09:33:44;;;;;;;11.18;7.70;;;13.20;94.80;;;;;;5156006;27;20046;-58
2023/04/06 09:36:09;;;;;;;12.90;7.60;;;13.50;95.40;;;;;;5156053;27;20452;-58
2023/04/06 09:38:54;;;;;;;12.18;8.07;;;13.30;95.10;;;;;;5156131;27;20406;-58
2023/04/06 09:41:41;;;;;;;12.68;8.45;;;13.00;95.00;;;;;;5155881;27;20034;-58
2023/04/06 09:44:11;;;;;;;12.43;9.27;;;12.90;94.70;;;;;;5155871;27;20477;-58
2023/04/06 09:46:41;;;;;;;12.68;8.93;;;12.60;95.00;;;;;;5155546;27;20079;-58
2023/04/06 09:49:08;;;;;;;13.35;9.27;;;12.60;95.20;;;;;;5155734;27;20035;-58
2023/04/06 09:51:40;;;;;;;13.45;8.70;;;12.60;96.00;;;;;;5155731;27;20396;-59
2023/04/06 09:54:07;;;;;;;14.23;9.52;;;12.80;95.50;;;;;;5155781;27;20121;-58
2023/04/06 09:56:57;;;;;;;18.45;9.40;;;12.80;95.70;;;;;;5136864;27;20039;-57
2023/04/06 09:59:22;;;;;;;12.00;9.27;;;12.90;96.70;;;;;;5155295;27;20122;-58
2023/04/06 10:01:52;;;;;;;10.95;8.52;;;12.90;95.90;;;;;;5155077;27;20117;-58
2023/04/06 10:04:36;;;;;;;13.50;9.38;;;12.70;95.90;;;;;;5136838;27;20057;-58
2023/04/06 10:07:03;;;;;;;14.38;9.52;;;12.90;96.50;;;;;;5137100;27;20039;-58
2023/04/06 10:09:35;;;;;;;16.25;10.90;;;12.90;95.40;;;;;;5155081;27;20038;-58
2023/04/06 10:12:07;;;;;;;15.80;10.55;;;12.90;95.00;;;;;;5155188;27;20112;-58
2023/04/06 10:14:37;;;;;;;19.95;12.27;;;13.10;95.60;;;;;;5155211;27;20080;-57
2023/04/06 10:17:04;;;;;;;15.65;11.57;;;13.10;94.20;;;;;;5154696;27;20043;-57
2023/04/06 10:20:00;;;;;;;16.38;11.18;;;13.10;94.50;;;;;;5154958;27;20065;-57
2023/04/06 10:22:52;;;;;;;16.35;11.52;;;13.30;94.20;;;;;;5050763;28;20045;-57
2023/04/06 10:25:27;;;;;;;16.85;11.65;;;13.30;94.70;;;;;;5050804;28;20475;-57
2023/04/06 10:28:00;;;;;;;16.60;11.68;;;13.40;94.20;;;;;;5034004;28;20057;-57
2023/04/06 10:30:27;;;;;;;21.70;13.13;;;13.40;94.40;;;;;;5033862;28;20044;-58
2023/04/06 10:32:53;;;;;;;18.75;13.52;;;13.60;94.30;;;;;;5050506;28;20535;-57
2023/04/06 10:35:19;;;;;;;21.83;13.18;;;13.70;93.60;;;;;;5050502;28;20044;-57
2023/04/06 10:38:01;;;;;;;20.48;12.85;;;13.40;92.90;;;;;;5050755;28;20037;-58
2023/04/06 10:40:27;;;;;;;16.27;12.10;;;13.70;93.80;;;;;;5050605;28;20048;-57
2023/04/06 10:42:55;;;;;;;22.17;14.18;;;13.90;94.00;;;;;;5050418;28;20488;-58
2023/04/06 10:45:25;;;;;;;23.38;13.45;;;13.80;93.50;;;;;;5050074;28;20505;-58
2023/04/06 10:47:54;;;;;;;21.48;13.85;;;13.90;93.60;;;;;;5050372;28;20033;-57
2023/04/06 10:50:20;;;;;;;23.90;14.45;;;13.80;93.90;;;;;;5050519;28;20426;-58
2023/04/06 10:52:46;;;;;;;20.67;14.93;;;13.90;93.80;;;;;;5050352;28;20207;-58
2023/04/06 10:55:16;;;;;;;18.50;14.10;;;13.90;92.90;;;;;;5050376;28;20044;-58
2023/04/06 10:57:42;;;;;;;22.67;16.45;;;14.10;93.80;;;;;;5050464;28;20041;-57
2023/04/06 11:00:09;;;;;;;22.65;16.95;;;14.00;94.10;;;;;;5144915;27;20370;-58
2023/04/06 11:02:40;;;;;;;27.38;18.65;;;13.80;93.80;;;;;;5154612;27;20065;-58
2023/04/06 11:05:06;;;;;;;28.45;20.25;;;13.70;93.30;;;;;;5154221;27;20491;-59
2023/04/06 11:07:32;;;;;;;25.65;18.67;;;13.70;94.00;;;;;;5154242;27;20046;-58
2023/04/06 11:09:58;;;;;;;27.73;19.35;;;13.70;94.20;;;;;;5135744;27;20118;-58
2023/04/06 11:12:26;;;;;;;27.23;19.63;;;13.80;94.30;;;;;;5154272;27;20548;-58
2023/04/06 11:14:55;;;;;;;30.77;19.98;;;13.90;94.60;;;;;;5153243;27;20474;-57
2023/04/06 11:17:28;;;;;;;27.27;19.50;;;13.90;94.40;;;;;;5154163;27;20126;-57
2023/04/06 11:19:55;;;;;;;28.63;19.52;;;14.00;94.90;;;;;;5154088;27;20426;-58
2023/04/06 11:22:21;;;;;;;30.35;19.63;;;14.00;94.00;;;;;;5154092;27;20095;-58
2023/04/06 11:24:48;;;;;;;32.92;20.83;;;14.20;93.70;;;;;;5154153;27;20035;-58
2023/04/06 11:27:16;;;;;;;32.53;23.55;;;14.20;93.50;;;;;;5154047;27;20042;-58
2023/04/06 11:29:42;;;;;;;35.50;23.13;;;14.20;93.20;;;;;;5154080;27;20039;-58
2023/04/06 11:32:08;;;;;;;29.65;21.00;;;14.30;93.60;;;;;;5135660;27;20038;-58
2023/04/06 11:34:36;;;;;;;32.25;20.73;;;14.30;93.70;;;;;;5153797;27;20075;-58
2023/04/06 11:37:07;;;;;;;29.43;20.83;;;14.50;93.50;;;;;;5135116;27;20042;-58
2023/04/06 11:39:56;;;;;;;30.17;20.02;;;14.40;92.80;;;;;;5154383;27;20295;-58
2023/04/06 11:42:27;;;;;;;26.08;18.98;;;14.30;93.10;;;;;;5153957;27;20159;-58
2023/04/06 11:44:59;;;;;;;29.60;20.67;;;14.40;93.60;;;;;;5135348;27;20051;-58
2023/04/06 11:47:43;;;;;;;27.10;19.02;;;14.40;93.30;;;;;;5153781;27;20043;-58
2023/04/06 11:50:14;;;;;;;24.45;19.95;;;14.20;92.90;;;;;;5153802;27;20395;-59
2023/04/06 11:52:41;;;;;;;27.52;19.20;;;14.10;93.30;;;;;;5153057;27;20070;-58
2023/04/06 11:55:17;;;;;;;29.02;19.38;;;14.10;93.20;;;;;;5133163;28;20074;-58
2023/04/06 11:57:43;;;;;;;25.67;19.02;;;14.20;93.70;;;;;;5133150;28;20035;-58
2023/04/06 12:00:11;;;;;;;27.42;19.98;;;14.10;93.60;;;;;;5135939;27;20039;-58
2023/04/06 12:02:37;;;;;;;24.73;18.83;;;14.20;93.20;;;;;;5132941;28;20038;-58
2023/04/06 12:05:04;;;;;;;28.65;19.02;;;14.00;93.30;;;;;;5132785;28;20039;-58
2023/04/06 12:07:30;;;;;;;27.52;18.65;;;14.00;94.20;;;;;;5132874;28;20112;-58
2023/04/06 12:09:56;;;;;;;29.27;19.65;;;13.90;94.20;;;;;;5132766;28;20489;-58
2023/04/06 12:12:21;;;;;;;25.23;18.60;;;14.00;93.80;;;;;;5132735;28;20039;-58
2023/04/06 12:14:47;;;;;;;26.40;19.25;;;14.00;93.70;;;;;;5132722;28;20039;-58
2023/04/06 12:17:13;;;;;;;25.38;19.58;;;14.10;93.70;;;;;;5132441;28;20524;-58
2023/04/06 12:19:38;;;;;;;29.77;20.50;;;13.90;93.80;;;;;;5132746;28;20043;-58
2023/04/06 12:22:05;;;;;;;27.70;19.33;;;14.00;93.80;;;;;;5132934;28;20529;-58
2023/04/06 12:24:30;;;;;;;27.83;20.40;;;14.00;93.40;;;;;;5132724;27;20079;-58
2023/04/06 12:26:56;;;;;;;25.17;20.52;;;14.00;93.30;;;;;;5136434;27;20127;-58
2023/04/06 12:29:24;;;;;;;28.25;20.02;;;13.90;92.90;;;;;;5136644;27;20035;-57
2023/04/06 12:31:50;;;;;;;30.08;21.95;;;14.00;93.30;;;;;;5136680;27;20388;-58
2023/04/06 12:34:16;;;;;;;29.40;20.15;;;13.80;93.30;;;;;;5118408;27;20043;-58
2023/04/06 12:36:42;;;;;;;25.65;19.13;;;13.80;92.90;;;;;;5118052;27;20043;-58
2023/04/06 12:39:08;;;;;;;27.30;20.27;;;13.70;92.80;;;;;;5136240;27;20442;-58
2023/04/06 12:41:34;;;;;;;34.15;22.08;;;13.70;93.10;;;;;;5136717;27;20389;-58